Time;durP1;ratioP1;P1;durP2;ratioP2;P2;SDS_P1;SDS_P2;PMS_P1;PMS_P2;Temp;Humidity;BMP_temperature;BMP_pressure;BME280_temperature;BME280_humidity;BME280_pressure;Samples;Min_cycle;Max_cycle;Signal;HPM_P1;HPM_P2
2023/04/09 00:00:35;;;;;;;28.60;21.83;;;3.90;99.90;;;;;;6208684;23;20170;-79
2023/04/09 00:03:01;;;;;;;29.90;22.37;;;4.00;99.90;;;;;;6207776;23;20613;-78
2023/04/09 00:05:26;;;;;;;28.53;20.47;;;4.00;99.90;;;;;;6208019;23;20215;-78
2023/04/09 00:07:52;;;;;;;29.43;21.90;;;4.00;22.90;;;;;;6208042;23;20177;-78
2023/04/09 00:10:17;;;;;;;26.53;19.97;;;4.00;1.00;;;;;;6205819;23;20642;-77
2023/04/09 00:12:43;;;;;;;28.73;21.13;;;3.80;1.00;;;;;;6207924;23;20220;-77
2023/04/09 00:15:09;;;;;;;27.57;20.17;;;3.70;1.00;;;;;;6208090;23;20197;-78
2023/04/09 00:17:35;;;;;;;26.83;21.20;;;3.60;44.30;;;;;;6207784;23;20150;-78
2023/04/09 00:20:00;;;;;;;28.67;20.47;;;3.50;57.20;;;;;;6209006;23;20628;-80
2023/04/09 00:22:26;;;;;;;32.00;23.40;;;3.30;99.90;;;;;;6206075;23;20158;-79
2023/04/09 00:24:52;;;;;;;29.03;21.13;;;3.20;99.90;;;;;;6209497;23;20626;-77
2023/04/09 00:27:18;;;;;;;26.63;20.77;;;3.00;1.00;;;;;;6209277;23;20174;-78
2023/04/09 00:29:44;;;;;;;27.80;20.30;;;2.90;24.90;;;;;;6209025;23;20175;-79
2023/04/09 00:32:09;;;;;;;29.53;20.47;;;4.40;99.90;;;;;;6207661;23;20189;-80
2023/04/09 00:34:35;;;;;;;30.70;21.83;;;3.10;99.90;;;;;;6206348;23;20165;-78
2023/04/09 00:37:01;;;;;;;29.93;21.53;;;3.20;99.90;;;;;;6208523;23;20603;-78
2023/04/09 00:39:26;;;;;;;31.30;21.33;;;3.30;46.80;;;;;;6208211;23;20662;-79
2023/04/09 00:41:56;;;;;;;28.37;20.20;;;3.30;1.00;;;;;;6208295;23;20158;-77
2023/04/09 00:44:22;;;;;;;27.53;21.17;;;3.40;99.90;;;;;;6206471;23;20154;-78
2023/04/09 00:46:48;;;;;;;28.93;20.83;;;3.40;99.90;;;;;;6206603;23;20204;-78
2023/04/09 00:49:13;;;;;;;26.27;19.80;;;3.40;99.90;;;;;;6207559;23;20205;-78
2023/04/09 00:51:39;;;;;;;31.00;22.20;;;3.40;99.90;;;;;;6207745;23;20499;-79
2023/04/09 00:54:06;;;;;;;27.57;20.03;;;3.40;99.90;;;;;;6206635;23;20611;-78
2023/04/09 00:56:32;;;;;;;27.23;21.27;;;3.40;99.90;;;;;;6205699;23;20561;-78
2023/04/09 00:58:58;;;;;;;26.47;20.83;;;3.30;79.90;;;;;;6207021;23;20227;-79
2023/04/09 01:01:24;;;;;;;29.70;21.77;;;3.30;1.00;;;;;;6207423;23;20150;-78
2023/04/09 01:03:50;;;;;;;25.57;19.93;;;3.30;1.00;;;;;;6207039;23;20150;-77
2023/04/09 01:06:31;;;;;;;26.73;20.10;;;3.20;1.00;;;;;;6205303;23;20257;-77
2023/04/09 01:09:15;;;;;;;26.87;19.53;;;3.20;1.00;;;;;;6206613;23;20579;-78
2023/04/09 01:11:55;;;;;;;27.00;19.50;;;3.10;99.90;;;;;;6207085;23;20154;-79
2023/04/09 01:14:36;;;;;;;26.03;19.10;;;3.10;99.90;;;;;;6205764;23;20154;-79
2023/04/09 01:17:11;;;;;;;26.03;18.70;;;3.00;99.90;;;;;;6205333;23;20480;-79
2023/04/09 01:19:49;;;;;;;27.43;20.83;;;3.00;99.90;;;;;;6204632;23;20189;-78
2023/04/09 01:22:47;;;;;;;27.07;18.73;;;2.80;99.90;;;;;;6207429;23;20138;-77
2023/04/09 01:25:50;;;;;;;28.73;19.63;;;2.60;99.90;;;;;;6207125;23;20130;-78
2023/04/09 01:28:38;;;;;;;27.13;19.70;;;2.20;99.90;;;;;;6207626;23;20272;-78
2023/04/09 01:31:10;;;;;;;26.40;19.67;;;2.30;1.00;;;;;;6205635;23;20639;-79
2023/04/09 01:33:37;;;;;;;25.43;19.13;;;2.30;41.70;;;;;;6207415;23;20149;-77
2023/04/09 01:36:04;;;;;;;25.80;19.10;;;2.40;45.40;;;;;;6207565;23;20497;-79
2023/04/09 01:38:30;;;;;;;26.90;19.60;;;2.50;99.90;;;;;;6205151;23;20189;-78
2023/04/09 01:40:56;;;;;;;26.33;18.47;;;2.60;1.00;;;;;;6205666;23;20178;-78
2023/04/09 01:43:24;;;;;;;26.73;19.33;;;2.70;1.00;;;;;;6207426;23;20154;-79
2023/04/09 01:45:50;;;;;;;26.30;18.20;;;2.60;99.90;;;;;;6207138;23;20178;-78
2023/04/09 01:48:16;;;;;;;23.10;17.43;;;2.70;99.90;;;;;;6207327;23;20165;-78
2023/04/09 01:50:43;;;;;;;26.20;19.10;;;2.80;99.90;;;;;;6205259;23;20210;-78
2023/04/09 01:53:08;;;;;;;24.07;17.13;;;2.50;99.90;;;;;;6205341;23;20844;-78
2023/04/09 01:55:34;;;;;;;24.93;17.57;;;2.30;99.90;;;;;;6205826;23;20342;-78
2023/04/09 01:58:00;;;;;;;24.20;18.00;;;2.30;99.90;;;;;;6205019;23;20428;-77
2023/04/09 02:00:33;;;;;;;26.57;19.13;;;2.40;99.90;;;;;;6209059;23;20642;-78
2023/04/09 02:03:23;;;;;;;24.73;17.57;;;2.50;1.00;;;;;;6205598;23;20150;-78
2023/04/09 02:06:10;;;;;;;28.90;19.27;;;2.60;99.90;;;;;;6206957;23;20198;-78
2023/04/09 02:08:36;;;;;;;24.90;17.97;;;2.70;99.90;;;;;;6206902;23;20188;-78
2023/04/09 02:11:05;;;;;;;24.13;18.20;;;2.60;99.90;;;;;;6206966;23;20185;-78
2023/04/09 02:13:31;;;;;;;25.30;18.37;;;2.60;99.90;;;;;;6206833;23;20292;-78
2023/04/09 02:15:59;;;;;;;25.77;18.33;;;2.40;99.90;;;;;;6207833;23;20213;-79
2023/04/09 02:18:29;;;;;;;27.30;18.70;;;2.20;99.90;;;;;;6208364;23;20262;-78
2023/04/09 02:20:58;;;;;;;26.17;18.77;;;2.10;99.90;;;;;;6208546;23;20171;-78
2023/04/09 02:23:24;;;;;;;27.47;17.93;;;2.30;99.90;;;;;;6208690;23;20146;-78
2023/04/09 02:25:51;;;;;;;26.00;18.40;;;2.40;1.00;;;;;;6208183;23;20159;-79
2023/04/09 02:28:17;;;;;;;23.53;17.17;;;2.50;1.00;;;;;;6208503;23;20611;-78
2023/04/09 02:30:43;;;;;;;26.43;18.73;;;2.60;1.00;;;;;;6208650;23;20216;-78
2023/04/09 02:33:08;;;;;;;29.83;20.30;;;2.40;99.90;;;;;;6206999;23;20215;-77
2023/04/09 02:35:34;;;;;;;30.93;20.63;;;2.30;99.90;;;;;;6208967;23;20233;-78
2023/04/09 02:38:00;;;;;;;28.97;19.40;;;2.10;99.90;;;;;;6208704;23;20918;-78
2023/04/09 02:40:25;;;;;;;30.07;20.37;;;1.90;99.90;;;;;;6206942;23;20178;-78
2023/04/09 02:42:52;;;;;;;29.93;19.43;;;1.60;99.90;;;;;;6207109;23;20629;-78
2023/04/09 02:45:18;;;;;;;59.40;22.13;;;1.50;1.00;;;;;;6209337;23;20666;-78
2023/04/09 02:47:43;;;;;;;32.03;18.40;;;1.40;99.90;;;;;;6209226;23;20182;-78
2023/04/09 02:50:09;;;;;;;37.70;19.43;;;1.40;1.00;;;;;;6207176;23;20178;-79
2023/04/09 02:52:35;;;;;;;31.67;19.17;;;1.60;1.00;;;;;;6207415;23;20169;-77
2023/04/09 02:55:00;;;;;;;30.97;20.07;;;1.90;99.90;;;;;;6207203;23;20170;-79
2023/04/09 02:57:26;;;;;;;37.23;20.37;;;2.10;91.30;;;;;;6208828;23;20158;-78
2023/04/09 02:59:52;;;;;;;29.90;19.83;;;2.10;99.90;;;;;;6207853;23;20190;-78
2023/04/09 03:02:17;;;;;;;34.03;20.43;;;2.10;1.00;;;;;;6208859;23;20157;-78
2023/04/09 03:04:43;;;;;;;32.73;20.10;;;2.10;1.00;;;;;;6206819;23;20946;-78
2023/04/09 03:07:08;;;;;;;51.60;20.80;;;2.20;1.00;;;;;;6208836;23;20154;-78
2023/04/09 03:09:34;;;;;;;31.63;18.57;;;2.30;1.00;;;;;;6206611;23;20217;-78
2023/04/09 03:12:00;;;;;;;44.43;19.93;;;2.30;99.90;;;;;;6208757;23;20150;-78
2023/04/09 03:14:26;;;;;;;26.40;16.70;;;2.30;99.90;;;;;;6207053;23;20159;-79
2023/04/09 03:16:52;;;;;;;32.10;19.77;;;2.30;99.90;;;;;;6209021;23;20161;-78
2023/04/09 03:19:17;;;;;;;28.20;18.17;;;2.40;99.90;;;;;;6208303;23;20658;-78
2023/04/09 03:21:43;;;;;;;30.87;18.97;;;2.40;99.90;;;;;;6208760;23;20158;-77
2023/04/09 03:24:09;;;;;;;33.73;19.27;;;2.50;90.30;;;;;;6208100;23;20161;-78
2023/04/09 03:26:37;;;;;;;26.30;18.37;;;2.50;1.00;;;;;;6207251;23;20161;-78
2023/04/09 03:29:04;;;;;;;28.00;18.40;;;2.40;1.00;;;;;;6208555;23;20159;-78
2023/04/09 03:31:30;;;;;;;27.42;19.40;;;2.40;1.00;;;;;;6208551;23;20382;-78
2023/04/09 03:33:56;;;;;;;24.63;17.97;;;2.50;1.00;;;;;;6208283;23;20230;-78
2023/04/09 03:36:22;;;;;;;23.83;17.77;;;2.60;1.00;;;;;;6208398;23;20239;-77
2023/04/09 03:38:48;;;;;;;25.37;17.67;;;2.60;1.00;;;;;;6207404;23;20277;-78
2023/04/09 03:41:13;;;;;;;46.40;18.57;;;2.50;1.00;;;;;;6208691;23;20154;-77
2023/04/09 03:43:39;;;;;;;62.27;18.70;;;2.20;1.00;;;;;;6206454;23;20209;-77
2023/04/09 03:46:12;;;;;;;29.63;17.73;;;1.90;1.00;;;;;;6208607;23;20157;-77
2023/04/09 03:48:38;;;;;;;27.93;18.67;;;1.60;3.60;;;;;;6208149;23;20154;-78
2023/04/09 03:51:03;;;;;;;28.20;19.10;;;1.40;99.90;;;;;;6208417;23;20178;-78
2023/04/09 03:53:29;;;;;;;41.37;20.20;;;1.20;1.00;;;;;;6208117;23;20225;-78
2023/04/09 03:55:55;;;;;;;31.67;19.60;;;1.20;99.90;;;;;;6208835;23;20904;-76
2023/04/09 03:58:21;;;;;;;28.17;19.30;;;1.20;99.90;;;;;;6205616;23;20190;-78
2023/04/09 04:00:47;;;;;;;29.77;21.20;;;1.40;92.90;;;;;;6206108;23;20181;-78
2023/04/09 04:03:14;;;;;;;32.50;21.43;;;1.40;1.00;;;;;;6207736;23;20150;-77
2023/04/09 04:05:40;;;;;;;29.37;20.57;;;1.50;1.00;;;;;;6206270;23;20169;-79
2023/04/09 04:08:06;;;;;;;33.73;21.60;;;1.50;1.00;;;;;;6206219;23;20162;-78
2023/04/09 04:10:33;;;;;;;34.67;22.23;;;1.50;99.90;;;;;;6207257;23;20170;-79
2023/04/09 04:12:59;;;;;;;29.70;20.40;;;1.60;1.00;;;;;;6207957;23;20095;-78
2023/04/09 04:15:24;;;;;;;30.47;21.23;;;1.90;1.00;;;;;;6206690;23;20595;-80
2023/04/09 04:17:50;;;;;;;30.60;20.87;;;2.20;1.00;;;;;;6207393;23;20180;-78
2023/04/09 04:20:15;;;;;;;30.87;21.97;;;2.60;99.90;;;;;;6205471;23;20190;-78
2023/04/09 04:22:41;;;;;;;30.45;24.33;;;2.90;99.90;;;;;;6204713;23;20381;-78
2023/04/09 04:25:07;;;;;;;30.47;21.87;;;2.90;1.00;;;;;;6205807;23;20585;-79
2023/04/09 04:27:32;;;;;;;30.73;21.13;;;3.00;1.00;;;;;;6207309;23;20614;-79
2023/04/09 04:29:58;;;;;;;25.97;19.90;;;3.00;99.90;;;;;;6207312;23;20174;-78
2023/04/09 04:32:24;;;;;;;27.30;20.50;;;3.00;99.90;;;;;;6207545;23;20160;-78
2023/04/09 04:34:50;;;;;;;27.73;19.83;;;3.10;99.90;;;;;;6207514;23;20155;-79
2023/04/09 04:37:16;;;;;;;24.90;18.77;;;3.10;92.90;;;;;;6205800;23;20166;-77
2023/04/09 04:39:41;;;;;;;23.83;18.13;;;3.10;1.00;;;;;;6206829;23;20196;-77
2023/04/09 04:42:07;;;;;;;25.87;18.50;;;3.20;1.00;;;;;;6207578;23;20162;-78
2023/04/09 04:44:32;;;;;;;23.37;17.37;;;3.40;99.90;;;;;;6207449;23;20150;-78
2023/04/09 04:46:58;;;;;;;24.33;17.60;;;3.50;99.90;;;;;;6205788;23;20173;-78
2023/04/09 04:49:23;;;;;;;24.60;17.53;;;3.50;1.00;;;;;;6205089;23;20219;-78
2023/04/09 04:51:49;;;;;;;24.67;17.67;;;3.50;1.00;;;;;;6207737;23;20534;-78
2023/04/09 04:54:14;;;;;;;24.30;16.90;;;3.50;1.00;;;;;;6205319;23;20610;-76
2023/04/09 04:56:40;;;;;;;21.93;15.87;;;3.40;99.90;;;;;;6205687;23;20249;-79
2023/04/09 04:59:05;;;;;;;25.20;18.73;;;3.00;99.90;;;;;;6206499;23;21063;-78
2023/04/09 05:01:31;;;;;;;30.63;23.23;;;3.20;99.90;;;;;;6207554;23;20174;-77
2023/04/09 05:03:56;;;;;;;23.60;18.90;;;2.90;1.00;;;;;;6207190;23;20237;-77
2023/04/09 05:06:22;;;;;;;29.93;22.40;;;2.90;99.90;;;;;;6205779;23;20216;-77
2023/04/09 05:08:48;;;;;;;38.30;27.73;;;3.00;99.90;;;;;;6206397;23;20161;-78
2023/04/09 05:11:15;;;;;;;38.67;28.93;;;3.10;99.90;;;;;;6205416;23;20165;-78
2023/04/09 05:13:41;;;;;;;33.43;25.77;;;3.20;1.00;;;;;;6207143;23;20886;-79
2023/04/09 05:16:06;;;;;;;36.23;26.60;;;3.30;1.00;;;;;;6205252;23;20162;-78
2023/04/09 05:18:32;;;;;;;33.60;25.83;;;3.40;1.00;;;;;;6206867;23;20271;-79
2023/04/09 05:20:57;;;;;;;37.93;27.13;;;3.40;1.00;;;;;;6206676;23;20170;-78
2023/04/09 05:23:23;;;;;;;38.03;27.87;;;3.60;1.00;;;;;;6206949;23;20162;-79
2023/04/09 05:25:49;;;;;;;44.07;30.97;;;3.70;1.00;;;;;;6204955;23;20154;-79
2023/04/09 05:28:15;;;;;;;38.17;29.00;;;3.80;99.90;;;;;;6206850;23;20221;-79
2023/04/09 05:30:45;;;;;;;34.50;25.50;;;3.90;99.90;;;;;;6207000;23;20170;-79
2023/04/09 05:33:10;;;;;;;30.43;23.13;;;4.00;99.90;;;;;;6203132;23;20147;-79
2023/04/09 05:35:40;;;;;;;28.60;22.70;;;4.10;99.90;;;;;;6204933;23;20287;-79
2023/04/09 05:38:05;;;;;;;29.53;22.83;;;4.10;94.70;;;;;;6204502;23;20174;-79
2023/04/09 05:40:31;;;;;;;27.17;20.27;;;4.20;50.60;;;;;;6204570;23;20208;-79
2023/04/09 05:42:56;;;;;;;25.80;19.77;;;4.20;1.00;;;;;;6204915;23;20248;-79
2023/04/09 05:45:22;;;;;;;24.83;19.60;;;4.40;1.00;;;;;;6204631;23;20494;-79
2023/04/09 05:47:47;;;;;;;25.93;20.03;;;4.40;99.90;;;;;;6206115;23;20154;-79
2023/04/09 05:50:13;;;;;;;26.20;19.87;;;4.50;99.90;;;;;;6206855;23;20248;-79
2023/04/09 05:52:39;;;;;;;23.63;19.17;;;4.60;99.90;;;;;;6208000;23;20154;-78
2023/04/09 05:55:05;;;;;;;23.43;18.03;;;4.60;99.90;;;;;;6207840;22;20206;-77
2023/04/09 05:57:31;;;;;;;21.43;16.83;;;4.60;99.90;;;;;;6206404;23;20417;-78
2023/04/09 05:59:56;;;;;;;21.60;16.70;;;4.60;99.90;;;;;;6206091;23;20590;-80
2023/04/09 06:02:23;;;;;;;19.47;16.93;;;4.60;99.90;;;;;;6209176;23;20135;-80
2023/04/09 06:04:49;;;;;;;21.67;17.57;;;4.60;99.90;;;;;;6207262;23;20146;-78
2023/04/09 06:07:15;;;;;;;20.00;16.40;;;4.20;99.90;;;;;;6210077;23;20169;-81
2023/04/09 06:09:42;;;;;;;22.83;20.00;;;4.10;1.00;;;;;;6210263;23;20185;-81
2023/04/09 06:12:09;;;;;;;21.10;18.63;;;4.10;1.00;;;;;;6211890;23;20166;-81
2023/04/09 06:14:34;;;;;;;22.70;18.17;;;4.00;99.90;;;;;;6212598;23;20167;-80
2023/04/09 06:17:00;;;;;;;25.53;20.23;;;4.00;99.90;;;;;;6211023;23;20154;-78
2023/04/09 06:19:26;;;;;;;29.73;23.43;;;4.00;99.90;;;;;;6209912;23;20205;-80
2023/04/09 06:21:52;;;;;;;27.27;22.20;;;4.10;1.00;;;;;;6212135;23;20158;-80
2023/04/09 06:24:17;;;;;;;24.07;20.80;;;4.20;1.00;;;;;;6210408;23;20162;-79
2023/04/09 06:26:43;;;;;;;24.07;21.03;;;4.40;1.00;;;;;;6213642;23;20158;-82
2023/04/09 06:29:08;;;;;;;22.73;19.13;;;4.50;99.90;;;;;;6209631;23;20185;-81
2023/04/09 06:31:34;;;;;;;23.13;19.60;;;4.60;99.90;;;;;;6211740;23;20182;-78
2023/04/09 06:34:00;;;;;;;22.80;19.03;;;4.70;99.90;;;;;;6211643;23;20162;-82
2023/04/09 06:36:26;;;;;;;24.00;20.20;;;4.80;99.90;;;;;;6211820;23;20165;-83
2023/04/09 06:38:52;;;;;;;24.50;21.03;;;4.90;99.90;;;;;;6212119;23;20621;-82
2023/04/09 06:41:22;;;;;;;23.53;21.03;;;4.90;72.90;;;;;;6212805;23;20135;-80
2023/04/09 06:43:48;;;;;;;24.47;19.60;;;4.90;86.40;;;;;;6212961;23;20146;-82
2023/04/09 06:46:17;;;;;;;25.60;19.90;;;5.00;99.90;;;;;;6213102;23;20601;-83
2023/04/09 06:48:43;;;;;;;22.90;19.10;;;5.10;99.90;;;;;;6209376;23;20242;-81
2023/04/09 06:51:10;;;;;;;23.67;20.00;;;5.20;99.90;;;;;;6208149;23;20206;-78
2023/04/09 06:53:36;;;;;;;32.90;22.73;;;5.30;99.90;;;;;;6207916;23;20166;-79
2023/04/09 06:56:02;;;;;;;34.30;23.23;;;5.40;99.90;;;;;;6209426;23;20170;-77
2023/04/09 06:58:27;;;;;;;42.67;27.40;;;5.40;1.00;;;;;;6209919;23;20188;-78
2023/04/09 07:00:53;;;;;;;41.37;28.27;;;5.40;1.00;;;;;;6208456;23;20508;-78
2023/04/09 07:03:19;;;;;;;42.33;26.40;;;5.50;64.80;;;;;;6206676;23;20593;-78
2023/04/09 07:05:45;;;;;;;46.13;29.90;;;5.60;18.00;;;;;;6209061;23;20157;-81
2023/04/09 07:08:11;;;;;;;45.07;29.80;;;6.50;99.90;;;;;;6207009;23;20158;-79
2023/04/09 07:10:37;;;;;;;41.53;27.33;;;5.70;1.00;;;;;;6208516;23;20166;-80
2023/04/09 07:13:02;;;;;;;43.77;32.60;;;5.80;1.00;;;;;;6208663;23;20501;-77
2023/04/09 07:15:28;;;;;;;39.77;28.17;;;5.80;1.00;;;;;;6208777;23;20221;-80
2023/04/09 07:17:53;;;;;;;42.67;28.73;;;5.90;1.00;;;;;;6208332;23;20237;-80
2023/04/09 07:20:19;;;;;;;39.63;27.80;;;6.00;1.00;;;;;;6206314;23;20240;-75
2023/04/09 07:22:45;;;;;;;43.27;29.47;;;6.00;1.00;;;;;;6209341;23;20154;-80
2023/04/09 07:25:10;;;;;;;43.87;28.87;;;6.10;1.00;;;;;;6209505;23;20665;-80
2023/04/09 07:27:36;;;;;;;38.93;27.27;;;6.00;99.90;;;;;;6208831;23;20174;-78
2023/04/09 07:30:02;;;;;;;37.60;25.50;;;5.90;99.90;;;;;;6208420;23;20204;-78
2023/04/09 07:32:28;;;;;;;39.27;25.83;;;6.10;99.90;;;;;;6207429;23;20222;-80
2023/04/09 07:34:54;;;;;;;33.40;24.70;;;6.10;51.70;;;;;;6207205;23;20186;-79
2023/04/09 07:37:20;;;;;;;33.50;23.73;;;6.10;64.00;;;;;;6207934;23;20151;-81
2023/04/09 07:39:46;;;;;;;35.73;25.53;;;6.20;1.00;;;;;;6206096;23;20209;-80
2023/04/09 07:42:13;;;;;;;34.90;24.33;;;6.20;1.00;;;;;;6204563;23;20487;-79
2023/04/09 07:44:38;;;;;;;36.30;26.00;;;6.30;99.90;;;;;;6206344;23;20149;-79
2023/04/09 07:47:05;;;;;;;35.17;24.97;;;6.40;1.00;;;;;;6203452;23;20625;-80
2023/04/09 07:49:31;;;;;;;32.67;24.57;;;6.40;99.90;;;;;;6205197;23;20205;-80
2023/04/09 07:51:58;;;;;;;33.13;24.83;;;6.50;99.90;;;;;;6206241;23;20154;-79
2023/04/09 07:54:24;;;;;;;33.10;24.47;;;6.50;99.90;;;;;;6206571;23;20157;-79
2023/04/09 07:56:50;;;;;;;33.53;25.40;;;6.60;99.90;;;;;;6206154;23;20169;-80
2023/04/09 07:59:15;;;;;;;34.83;24.80;;;6.50;99.90;;;;;;6206507;23;20276;-79
2023/04/09 08:01:42;;;;;;;36.70;26.67;;;6.50;99.90;;;;;;6206434;23;20503;-82
2023/04/09 08:04:08;;;;;;;38.83;26.77;;;6.50;99.90;;;;;;6210351;23;20485;-82
2023/04/09 08:06:33;;;;;;;35.80;27.20;;;6.60;99.90;;;;;;6212106;23;20610;-80
2023/04/09 08:08:59;;;;;;;31.90;24.13;;;6.70;99.90;;;;;;6212262;23;20169;-79
2023/04/09 08:11:25;;;;;;;31.90;25.33;;;6.80;99.90;;;;;;6211271;23;20201;-81
2023/04/09 08:13:53;;;;;;;33.57;25.87;;;6.70;99.90;;;;;;6211008;23;20154;-79
2023/04/09 08:16:20;;;;;;;33.53;26.00;;;6.80;99.90;;;;;;6209569;23;20219;-81
2023/04/09 08:18:46;;;;;;;32.20;25.73;;;6.80;99.90;;;;;;6210046;23;20278;-82
2023/04/09 08:21:12;;;;;;;31.20;25.57;;;6.80;99.90;;;;;;6210999;23;20158;-81
2023/04/09 08:23:38;;;;;;;32.60;24.63;;;6.70;99.90;;;;;;6207274;23;20551;-78
2023/04/09 08:26:03;;;;;;;32.47;25.17;;;6.80;99.90;;;;;;6204782;23;20216;-80
2023/04/09 08:28:29;;;;;;;29.30;24.47;;;6.90;99.90;;;;;;6207714;23;20157;-80
2023/04/09 08:30:55;;;;;;;29.07;24.10;;;7.10;99.90;;;;;;6204273;23;20182;-79
2023/04/09 08:33:21;;;;;;;28.17;23.17;;;7.20;92.30;;;;;;6206500;23;20143;-79
2023/04/09 08:35:46;;;;;;;28.43;23.63;;;7.40;66.30;;;;;;6206523;23;20216;-79
2023/04/09 08:38:12;;;;;;;29.73;25.07;;;7.80;46.30;;;;;;6207169;23;20552;-79
2023/04/09 08:40:38;;;;;;;28.53;24.77;;;7.70;30.90;;;;;;6205006;23;20257;-79
2023/04/09 08:43:06;;;;;;;27.37;23.53;;;7.80;11.00;;;;;;6205908;23;20139;-79
2023/04/09 08:45:32;;;;;;;26.43;23.00;;;8.00;5.40;;;;;;6205965;23;20142;-78
2023/04/09 08:47:58;;;;;;;26.90;22.73;;;8.20;1.00;;;;;;6208396;23;20675;-78
2023/04/09 08:50:30;;;;;;;29.87;24.13;;;8.30;1.00;;;;;;6203234;23;20273;-82
2023/04/09 08:52:58;;;;;;;30.50;26.83;;;8.50;1.00;;;;;;6210762;23;20151;-80
2023/04/09 08:55:24;;;;;;;33.03;27.63;;;8.60;1.00;;;;;;6213548;23;20178;-79
2023/04/09 08:57:49;;;;;;;29.53;25.33;;;8.70;1.00;;;;;;6208290;23;20212;-81
2023/04/09 09:00:15;;;;;;;27.60;23.30;;;8.90;1.00;;;;;;6207245;23;20186;-82
2023/04/09 09:03:00;;;;;;;27.97;23.83;;;9.00;1.00;;;;;;6205988;23;20147;-82
2023/04/09 09:05:36;;;;;;;27.27;23.77;;;9.10;1.00;;;;;;6205783;23;20225;-80
2023/04/09 09:08:02;;;;;;;26.00;22.77;;;9.20;1.00;;;;;;6207571;23;20395;-80
2023/04/09 09:10:44;;;;;;;27.40;24.33;;;9.10;1.00;;;;;;6208431;23;20197;-81
2023/04/09 09:13:30;;;;;;;27.10;22.70;;;9.10;1.00;;;;;;6206621;23;20204;-82
2023/04/09 09:16:13;;;;;;;27.80;23.60;;;9.20;1.00;;;;;;6206478;23;20170;-82
2023/04/09 09:18:41;;;;;;;26.07;23.07;;;8.90;1.00;;;;;;6207164;23;20193;-80
2023/04/09 09:21:18;;;;;;;27.97;23.77;;;9.10;1.00;;;;;;6208114;23;20174;-80
2023/04/09 09:23:44;;;;;;;24.93;22.33;;;9.20;1.00;;;;;;6206254;23;20552;-81
2023/04/09 09:26:15;;;;;;;27.37;23.70;;;9.60;1.00;;;;;;6208641;23;20139;-78
2023/04/09 09:28:41;;;;;;;28.13;23.30;;;9.60;1.00;;;;;;6209607;23;20416;-81
2023/04/09 09:31:11;;;;;;;27.07;23.17;;;9.60;1.00;;;;;;6209356;23;20171;-81
2023/04/09 09:33:37;;;;;;;27.73;23.73;;;9.70;1.00;;;;;;6206817;23;20193;-82
2023/04/09 09:36:03;;;;;;;27.43;23.10;;;9.60;1.00;;;;;;6208379;23;20154;-79
2023/04/09 09:38:30;;;;;;;25.50;22.70;;;9.80;1.00;;;;;;6209930;23;20634;-82
2023/04/09 09:40:56;;;;;;;26.00;23.20;;;9.80;1.00;;;;;;6208996;23;20518;-80
2023/04/09 09:43:22;;;;;;;26.63;22.63;;;10.20;1.00;;;;;;6203872;23;20218;-76
2023/04/09 09:45:48;;;;;;;26.83;23.80;;;10.30;1.00;;;;;;6205500;23;20157;-78
2023/04/09 09:48:14;;;;;;;26.47;23.63;;;10.30;1.00;;;;;;6195236;23;20414;-79
2023/04/09 09:50:41;;;;;;;28.93;25.87;;;10.10;1.00;;;;;;6198334;23;20182;-80
2023/04/09 09:53:08;;;;;;;29.43;26.40;;;10.00;1.00;;;;;;6177750;23;20177;-79
2023/04/09 09:55:39;;;;;;;37.17;33.37;;;9.90;1.00;;;;;;6206781;23;20214;-81
2023/04/09 09:58:22;;;;;;;94.83;78.40;;;9.90;1.00;;;;;;6207163;23;20139;-80
2023/04/09 10:00:51;;;;;;;79.77;67.97;;;10.00;1.00;;;;;;6209414;23;20178;-78
2023/04/09 10:03:31;;;;;;;45.03;38.33;;;10.00;1.00;;;;;;6209280;23;20186;-78
2023/04/09 10:05:59;;;;;;;47.30;42.20;;;10.10;1.00;;;;;;6208413;23;20139;-79
2023/04/09 10:08:25;;;;;;;46.83;41.00;;;10.10;1.00;;;;;;6208099;23;20154;-78
2023/04/09 10:10:51;;;;;;;42.30;36.93;;;10.10;1.00;;;;;;6209259;23;20189;-78
2023/04/09 10:13:36;;;;;;;44.77;39.93;;;10.10;1.00;;;;;;6204469;23;20184;-80
2023/04/09 10:16:02;;;;;;;30.02;26.58;;;10.40;1.00;;;;;;6201931;23;20466;-79
2023/04/09 10:18:32;;;;;;;39.88;33.70;;;10.40;1.00;;;;;;6205187;23;20279;-79
2023/04/09 10:20:59;;;;;;;45.80;39.10;;;10.40;1.00;;;;;;6204942;23;20178;-79
2023/04/09 10:23:36;;;;;;;33.63;30.00;;;10.50;1.00;;;;;;6206886;23;20135;-79
2023/04/09 10:26:04;;;;;;;27.30;23.97;;;10.60;1.00;;;;;;6208391;23;20185;-79
2023/04/09 10:28:30;;;;;;;31.00;27.03;;;10.40;1.00;;;;;;6205527;23;20232;-78
2023/04/09 10:30:57;;;;;;;28.57;25.17;;;10.30;1.00;;;;;;6205129;23;20583;-79
2023/04/09 10:33:25;;;;;;;32.95;29.45;;;10.50;1.00;;;;;;6203763;23;20166;-80
2023/04/09 10:35:53;;;;;;;27.20;23.53;;;10.70;1.00;;;;;;6205451;23;20158;-78
2023/04/09 10:38:36;;;;;;;31.35;27.90;;;10.80;1.00;;;;;;6207442;23;20616;-79
2023/04/09 10:41:30;;;;;;;69.63;57.25;;;11.00;1.00;;;;;;6207642;23;20343;-79
2023/04/09 10:43:56;;;;;;;29.90;26.35;;;10.90;1.00;;;;;;6205717;23;20175;-79
2023/04/09 10:46:33;;;;;;;29.65;26.33;;;10.70;1.00;;;;;;6205059;23;20154;-79
2023/04/09 10:49:15;;;;;;;28.45;25.30;;;10.80;1.00;;;;;;6208092;23;20150;-80
2023/04/09 10:51:41;;;;;;;28.43;25.33;;;10.60;1.00;;;;;;6207245;23;20185;-79
2023/04/09 10:54:31;;;;;;;31.23;27.33;;;10.60;1.00;;;;;;6205786;23;20244;-79
2023/04/09 10:57:05;;;;;;;40.17;35.70;;;10.70;1.00;;;;;;6233964;23;20617;-79
2023/04/09 10:59:35;;;;;;;33.63;29.97;;;10.70;1.00;;;;;;6233642;23;20204;-80
2023/04/09 11:02:00;;;;;;;30.17;26.87;;;10.80;1.00;;;;;;6237366;23;20181;-78
2023/04/09 11:04:56;;;;;;;28.77;25.63;;;10.90;1.00;;;;;;6236682;23;20515;-79
2023/04/09 11:07:23;;;;;;;29.17;26.02;;;10.90;1.00;;;;;;6210637;23;20138;-79
2023/04/09 11:09:49;;;;;;;31.52;28.15;;;11.20;1.00;;;;;;6238140;23;20184;-78
2023/04/09 11:12:15;;;;;;;27.85;24.77;;;11.40;1.00;;;;;;6215417;23;20545;-82
2023/04/09 11:14:41;;;;;;;26.85;24.05;;;11.50;1.00;;;;;;6244808;23;20184;-82
2023/04/09 11:17:06;;;;;;;28.35;25.08;;;11.40;1.00;;;;;;6245003;23;20158;-80
2023/04/09 11:19:35;;;;;;;28.35;25.35;;;11.50;1.00;;;;;;6244999;23;20235;-82
2023/04/09 11:22:05;;;;;;;27.20;24.25;;;11.40;1.00;;;;;;6245388;23;20154;-81
2023/04/09 11:24:45;;;;;;;28.30;25.15;;;11.50;1.00;;;;;;6244659;23;20134;-82
2023/04/09 11:27:11;;;;;;;29.25;25.75;;;11.40;1.00;;;;;;6243579;23;20160;-83
2023/04/09 11:29:37;;;;;;;30.60;27.02;;;11.20;1.00;;;;;;6240494;23;20185;-83
2023/04/09 11:32:04;;;;;;;28.05;25.13;;;11.10;1.00;;;;;;6214311;23;20241;-84
2023/04/09 11:34:30;;;;;;;31.23;27.40;;;11.30;1.00;;;;;;6213276;23;20236;-83
2023/04/09 11:36:57;;;;;;;29.10;25.92;;;11.30;1.00;;;;;;6213851;23;20166;-81
2023/04/09 11:39:23;;;;;;;28.73;25.67;;;11.40;1.00;;;;;;6211587;23;20189;-82
2023/04/09 11:41:49;;;;;;;30.48;26.50;;;11.80;1.00;;;;;;6211522;23;20874;-82
2023/04/09 11:44:15;;;;;;;28.05;25.05;;;11.50;1.00;;;;;;6236700;23;21093;-81
2023/04/09 11:46:41;;;;;;;28.60;25.52;;;11.80;1.00;;;;;;6238803;23;20154;-83
2023/04/09 11:49:07;;;;;;;28.90;25.38;;;11.80;1.00;;;;;;6209370;23;20649;-81
2023/04/09 11:51:34;;;;;;;29.27;25.48;;;11.70;1.00;;;;;;6211427;23;20149;-82
2023/04/09 11:54:06;;;;;;;28.85;25.70;;;11.70;1.00;;;;;;6214104;23;20736;-83
2023/04/09 11:56:35;;;;;;;29.00;25.90;;;11.50;1.00;;;;;;6219133;23;20637;-80
2023/04/09 11:59:01;;;;;;;31.10;26.33;;;11.40;1.00;;;;;;6207531;23;20244;-82
2023/04/09 12:01:33;;;;;;;27.40;24.60;;;11.60;1.00;;;;;;6214100;23;20162;-80
2023/04/09 12:04:00;;;;;;;28.55;25.45;;;11.70;1.00;;;;;;6208184;23;20242;-80
2023/04/09 12:06:26;;;;;;;28.33;25.02;;;11.70;1.00;;;;;;6205677;22;20198;-83
2023/04/09 12:08:56;;;;;;;27.77;24.80;;;11.90;1.00;;;;;;6203424;23;20606;-82
2023/04/09 12:11:28;;;;;;;27.75;24.67;;;12.50;1.00;;;;;;6204562;23;20162;-82
2023/04/09 12:14:04;;;;;;;26.13;23.30;;;12.50;1.00;;;;;;6206815;23;20210;-82
2023/04/09 12:16:33;;;;;;;26.92;23.98;;;12.00;1.00;;;;;;6205981;23;20169;-83
2023/04/09 12:19:04;;;;;;;26.48;23.65;;;12.20;1.00;;;;;;6205499;23;20240;-83
2023/04/09 12:21:57;;;;;;;26.15;23.35;;;12.10;1.00;;;;;;6205242;23;20153;-83
2023/04/09 12:24:24;;;;;;;26.33;23.63;;;12.20;1.00;;;;;;6204040;23;20492;-85
2023/04/09 12:26:50;;;;;;;25.88;23.20;;;12.40;1.00;;;;;;6204413;23;20146;-83
2023/04/09 12:29:18;;;;;;;26.23;23.40;;;12.40;1.00;;;;;;6204069;23;20193;-84
2023/04/09 12:31:44;;;;;;;25.67;22.98;;;12.30;1.00;;;;;;6205200;23;20493;-82
2023/04/09 12:34:10;;;;;;;25.30;22.58;;;12.20;1.00;;;;;;6205947;23;20154;-82
2023/04/09 12:36:37;;;;;;;24.85;22.25;;;12.20;1.00;;;;;;6207412;23;20221;-81
2023/04/09 12:39:02;;;;;;;24.33;21.67;;;12.10;1.00;;;;;;6203330;23;20181;-84
2023/04/09 12:41:28;;;;;;;23.95;21.48;;;12.10;1.00;;;;;;6203833;23;20166;-83
2023/04/09 12:43:54;;;;;;;25.10;22.40;;;12.20;1.00;;;;;;6205015;23;20203;-82